AUA7DM LOWW-LOWK
Flight info
| Callsign | AUA7DM |
|---|---|
| Flight time | 0h 26m |
| Altitude | 16000 |
| Route | RUPET2C RUPET DCT ABIRI ABIRI4T |
| Aircraft | A320/M-V/N |
Departure
| Time | 2026-05-09 13:16 |
|---|---|
| Airport | Vienna International Airport (LOWW) |
Arrival
| Time | 2026-05-09 13:42 |
|---|---|
| Airport | Klagenfurt Airport (LOWK) |
| Time | Latitude | Longitude | Altitude | Speed | Heading |
|---|---|---|---|---|---|
| 2026-05-09 12:58 | 48.12030 | 16.56933 | 621 ft | 0 kts | 26° |
| 2026-05-09 13:06 | 48.12019 | 16.56925 | 630 ft | 2 kts | 26° |
| 2026-05-09 13:07 | 48.12003 | 16.56914 | 623 ft | 2 kts | 60° |
| 2026-05-09 13:07 | 48.12000 | 16.56890 | 614 ft | 2 kts | 66° |
| 2026-05-09 13:07 | 48.11990 | 16.56871 | 618 ft | 2 kts | 71° |
| 2026-05-09 13:07 | 48.11988 | 16.56862 | 615 ft | 0 kts | 94° |
| 2026-05-09 13:08 | 48.11987 | 16.56870 | 617 ft | 3 kts | 97° |
| 2026-05-09 13:08 | 48.11986 | 16.56876 | 624 ft | 0 kts | 106° |
| 2026-05-09 13:09 | 48.11985 | 16.56878 | 610 ft | 1 kts | 107° |
| 2026-05-09 13:09 | 48.11980 | 16.56895 | 621 ft | 5 kts | 112° |
| 2026-05-09 13:09 | 48.11954 | 16.56979 | 622 ft | 9 kts | 117° |
| 2026-05-09 13:09 | 48.11926 | 16.57064 | 616 ft | 9 kts | 115° |
| 2026-05-09 13:10 | 48.11902 | 16.57141 | 617 ft | 8 kts | 116° |
| 2026-05-09 13:10 | 48.11851 | 16.57230 | 614 ft | 13 kts | 123° |
| 2026-05-09 13:10 | 48.11812 | 16.57343 | 618 ft | 12 kts | 117° |
| 2026-05-09 13:10 | 48.11820 | 16.57451 | 619 ft | 10 kts | 71° |
| 2026-05-09 13:11 | 48.11828 | 16.57491 | 610 ft | 0 kts | 76° |
| 2026-05-09 13:11 | 48.11824 | 16.57495 | 610 ft | 1 kts | 122° |
| 2026-05-09 13:11 | 48.11818 | 16.57492 | 610 ft | 3 kts | 188° |
| 2026-05-09 13:11 | 48.11730 | 16.57507 | 622 ft | 16 kts | 160° |
| 2026-05-09 13:12 | 48.11628 | 16.57546 | 614 ft | 15 kts | 167° |
| 2026-05-09 13:12 | 48.11533 | 16.57587 | 618 ft | 14 kts | 163° |
| 2026-05-09 13:12 | 48.11406 | 16.57644 | 618 ft | 23 kts | 164° |
| 2026-05-09 13:12 | 48.11241 | 16.57669 | 622 ft | 25 kts | 204° |
| 2026-05-09 13:13 | 48.11096 | 16.57545 | 624 ft | 25 kts | 212° |
| 2026-05-09 13:13 | 48.10966 | 16.57426 | 622 ft | 12 kts | 253° |
| 2026-05-09 13:13 | 48.10990 | 16.57296 | 619 ft | 4 kts | 296° |
| 2026-05-09 13:13 | 48.10990 | 16.57295 | 619 ft | 0 kts | 296° |
| 2026-05-09 13:14 | 48.10998 | 16.57274 | 624 ft | 16 kts | 296° |
| 2026-05-09 13:14 | 48.11174 | 16.56730 | 618 ft | 95 kts | 296° |
| 2026-05-09 13:16 | 48.07010 | 16.46394 | 4105 ft | 270 kts | 220° |
| 2026-05-09 13:16 | 48.05572 | 16.44581 | 5203 ft | 270 kts | 223° |
| 2026-05-09 13:16 | 48.04621 | 16.43332 | 5943 ft | 270 kts | 223° |
| 2026-05-09 13:16 | 48.03216 | 16.41459 | 6995 ft | 272 kts | 223° |
| 2026-05-09 13:17 | 48.01799 | 16.39570 | 7964 ft | 275 kts | 224° |
| 2026-05-09 13:17 | 48.00333 | 16.37693 | 8917 ft | 279 kts | 222° |
| 2026-05-09 13:17 | 47.98806 | 16.35863 | 9869 ft | 284 kts | 221° |
| 2026-05-09 13:17 | 47.97239 | 16.34046 | 10733 ft | 288 kts | 220° |
| 2026-05-09 13:18 | 47.95641 | 16.32213 | 11621 ft | 291 kts | 220° |
| 2026-05-09 13:18 | 47.94046 | 16.30382 | 12497 ft | 294 kts | 220° |
| 2026-05-09 13:18 | 47.92399 | 16.28481 | 13399 ft | 297 kts | 219° |
| 2026-05-09 13:18 | 47.90780 | 16.26606 | 14189 ft | 301 kts | 219° |
| 2026-05-09 13:19 | 47.89121 | 16.24674 | 14951 ft | 304 kts | 219° |
| 2026-05-09 13:19 | 47.87449 | 16.22723 | 15738 ft | 307 kts | 219° |
| 2026-05-09 13:19 | 47.85763 | 16.20756 | 16507 ft | 310 kts | 219° |
| 2026-05-09 13:19 | 47.84061 | 16.18774 | 17271 ft | 312 kts | 219° |
| 2026-05-09 13:20 | 47.82344 | 16.16778 | 18031 ft | 315 kts | 219° |
| 2026-05-09 13:20 | 47.80605 | 16.14756 | 18739 ft | 318 kts | 220° |
| 2026-05-09 13:20 | 47.78851 | 16.12718 | 19419 ft | 320 kts | 220° |
| 2026-05-09 13:20 | 47.77089 | 16.10676 | 20077 ft | 322 kts | 220° |
| 2026-05-09 13:21 | 47.75312 | 16.08621 | 20747 ft | 324 kts | 220° |
| 2026-05-09 13:21 | 47.73529 | 16.06560 | 21408 ft | 326 kts | 220° |
| 2026-05-09 13:21 | 47.71729 | 16.04484 | 21956 ft | 329 kts | 220° |
| 2026-05-09 13:21 | 47.69913 | 16.02393 | 22102 ft | 335 kts | 219° |
| 2026-05-09 13:22 | 47.68014 | 16.00203 | 22123 ft | 356 kts | 219° |
| 2026-05-09 13:22 | 47.66009 | 15.97886 | 22120 ft | 372 kts | 219° |
| 2026-05-09 13:22 | 47.63951 | 15.95511 | 22121 ft | 376 kts | 219° |
| 2026-05-09 13:23 | 47.55650 | 15.85990 | 22118 ft | 378 kts | 219° |
| 2026-05-09 13:23 | 47.53567 | 15.83605 | 22110 ft | 379 kts | 219° |
| 2026-05-09 13:24 | 47.51479 | 15.81219 | 22114 ft | 380 kts | 219° |
| 2026-05-09 13:24 | 47.49380 | 15.78821 | 22116 ft | 381 kts | 219° |
| 2026-05-09 13:24 | 47.47286 | 15.76429 | 22112 ft | 381 kts | 219° |
| 2026-05-09 13:24 | 47.45188 | 15.74034 | 22111 ft | 381 kts | 219° |
| 2026-05-09 13:25 | 47.43088 | 15.71643 | 22112 ft | 381 kts | 219° |
| 2026-05-09 13:25 | 47.40988 | 15.69255 | 22106 ft | 381 kts | 219° |
| 2026-05-09 13:25 | 47.36789 | 15.64484 | 22098 ft | 381 kts | 219° |
| 2026-05-09 13:26 | 47.34690 | 15.62106 | 22084 ft | 380 kts | 219° |
| 2026-05-09 13:26 | 47.32588 | 15.59726 | 22088 ft | 381 kts | 219° |
| 2026-05-09 13:26 | 47.30489 | 15.57349 | 22083 ft | 381 kts | 219° |
| 2026-05-09 13:26 | 47.28385 | 15.54971 | 22083 ft | 381 kts | 219° |
| 2026-05-09 13:27 | 47.26279 | 15.52593 | 22087 ft | 381 kts | 219° |
| 2026-05-09 13:27 | 47.24179 | 15.50220 | 22081 ft | 381 kts | 219° |
| 2026-05-09 13:27 | 47.22074 | 15.47844 | 22080 ft | 380 kts | 219° |
| 2026-05-09 13:27 | 47.20014 | 15.45522 | 21910 ft | 368 kts | 219° |
| 2026-05-09 13:28 | 47.17998 | 15.43258 | 21464 ft | 362 kts | 219° |
| 2026-05-09 13:28 | 47.16006 | 15.41026 | 20937 ft | 359 kts | 219° |
| 2026-05-09 13:28 | 47.14030 | 15.38810 | 20441 ft | 356 kts | 219° |
| 2026-05-09 13:28 | 47.12079 | 15.36622 | 19927 ft | 349 kts | 219° |
| 2026-05-09 13:29 | 47.10166 | 15.34472 | 19383 ft | 344 kts | 219° |
| 2026-05-09 13:29 | 47.08275 | 15.32349 | 18885 ft | 339 kts | 219° |
| 2026-05-09 13:29 | 47.06413 | 15.30263 | 18388 ft | 335 kts | 219° |
| 2026-05-09 13:29 | 47.04585 | 15.28218 | 17825 ft | 325 kts | 219° |
| 2026-05-09 13:30 | 47.02814 | 15.26241 | 17260 ft | 315 kts | 219° |
| 2026-05-09 13:30 | 47.01090 | 15.24317 | 16721 ft | 309 kts | 219° |
| 2026-05-09 13:30 | 46.99379 | 15.22407 | 16307 ft | 308 kts | 219° |
| 2026-05-09 13:30 | 46.97681 | 15.20514 | 16089 ft | 305 kts | 219° |
| 2026-05-09 13:31 | 46.95993 | 15.18636 | 16058 ft | 305 kts | 219° |
| 2026-05-09 13:31 | 46.94304 | 15.16754 | 16062 ft | 306 kts | 219° |
| 2026-05-09 13:31 | 46.92613 | 15.14872 | 16063 ft | 305 kts | 219° |
| 2026-05-09 13:31 | 46.90920 | 15.12991 | 16069 ft | 306 kts | 219° |
| 2026-05-09 13:32 | 46.89240 | 15.11127 | 16067 ft | 299 kts | 219° |
| 2026-05-09 13:32 | 46.85965 | 15.07500 | 16067 ft | 294 kts | 219° |
| 2026-05-09 13:32 | 46.84337 | 15.05702 | 16064 ft | 289 kts | 219° |
| 2026-05-09 13:33 | 46.82751 | 15.03954 | 16067 ft | 283 kts | 219° |
| 2026-05-09 13:33 | 46.81215 | 15.02260 | 16070 ft | 273 kts | 219° |
| 2026-05-09 13:33 | 46.79708 | 15.00594 | 15991 ft | 272 kts | 219° |
| 2026-05-09 13:33 | 46.78208 | 14.98933 | 15729 ft | 269 kts | 219° |
| 2026-05-09 13:34 | 46.76818 | 14.97142 | 15445 ft | 267 kts | 227° |
| 2026-05-09 13:34 | 46.75611 | 14.95053 | 14782 ft | 271 kts | 236° |
| 2026-05-09 13:34 | 46.74626 | 14.92749 | 14217 ft | 272 kts | 240° |
| 2026-05-09 13:34 | 46.73669 | 14.90365 | 13644 ft | 272 kts | 240° |
| 2026-05-09 13:35 | 46.72717 | 14.88014 | 13080 ft | 267 kts | 240° |
| 2026-05-09 13:35 | 46.71774 | 14.85698 | 12498 ft | 264 kts | 240° |
| 2026-05-09 13:35 | 46.70839 | 14.83406 | 11895 ft | 262 kts | 240° |
| 2026-05-09 13:35 | 46.69914 | 14.81131 | 11324 ft | 260 kts | 240° |
| 2026-05-09 13:36 | 46.68994 | 14.78868 | 10778 ft | 259 kts | 239° |
| 2026-05-09 13:36 | 46.68079 | 14.76622 | 10253 ft | 256 kts | 239° |
| 2026-05-09 13:36 | 46.67176 | 14.74402 | 9692 ft | 255 kts | 239° |
| 2026-05-09 13:36 | 46.66276 | 14.72190 | 9096 ft | 253 kts | 239° |
| 2026-05-09 13:37 | 46.65384 | 14.70003 | 8588 ft | 250 kts | 239° |
| 2026-05-09 13:37 | 46.64489 | 14.67811 | 7963 ft | 252 kts | 238° |
| 2026-05-09 13:37 | 46.63601 | 14.65639 | 7441 ft | 249 kts | 238° |
| 2026-05-09 13:37 | 46.62713 | 14.63464 | 6877 ft | 250 kts | 238° |
| 2026-05-09 13:38 | 46.61830 | 14.61300 | 6373 ft | 247 kts | 239° |
| 2026-05-09 13:38 | 46.61114 | 14.59067 | 5769 ft | 240 kts | 249° |
| 2026-05-09 13:38 | 46.60695 | 14.56765 | 5115 ft | 233 kts | 258° |
| 2026-05-09 13:38 | 46.60550 | 14.54445 | 4469 ft | 229 kts | 269° |
| 2026-05-09 13:39 | 46.60662 | 14.52164 | 3937 ft | 220 kts | 277° |
| 2026-05-09 13:39 | 46.60961 | 14.50067 | 3486 ft | 203 kts | 285° |
| 2026-05-09 13:39 | 46.61334 | 14.48218 | 3337 ft | 181 kts | 288° |
| 2026-05-09 13:39 | 46.61662 | 14.46561 | 3135 ft | 161 kts | 286° |
| 2026-05-09 13:40 | 46.61977 | 14.45029 | 2779 ft | 155 kts | 287° |
| 2026-05-09 13:40 | 46.62270 | 14.43574 | 2534 ft | 146 kts | 285° |
| 2026-05-09 13:40 | 46.62556 | 14.42186 | 2369 ft | 142 kts | 285° |
| 2026-05-09 13:40 | 46.62829 | 14.40816 | 2204 ft | 141 kts | 283° |
| 2026-05-09 13:41 | 46.63098 | 14.39444 | 2033 ft | 141 kts | 284° |
| 2026-05-09 13:41 | 46.63374 | 14.38074 | 1861 ft | 142 kts | 284° |
| 2026-05-09 13:41 | 46.63656 | 14.36699 | 1672 ft | 142 kts | 284° |
| 2026-05-09 13:41 | 46.63932 | 14.35332 | 1504 ft | 141 kts | 284° |
| 2026-05-09 13:42 | 46.64178 | 14.34114 | 1475 ft | 103 kts | 284° |
| 2026-05-09 13:42 | 46.64331 | 14.33358 | 1473 ft | 53 kts | 287° |
| 2026-05-09 13:42 | 46.64403 | 14.33011 | 1475 ft | 30 kts | 285° |
| 2026-05-09 13:42 | 46.64527 | 14.32833 | 1476 ft | 19 kts | 331° |
| 2026-05-09 13:43 | 46.64555 | 14.32811 | 1472 ft | 0 kts | 334° |
| 2026-05-09 13:43 | 46.64558 | 14.32809 | 1472 ft | 2 kts | 336° |
| 2026-05-09 13:43 | 46.64613 | 14.32766 | 1474 ft | 12 kts | 320° |
| 2026-05-09 13:44 | 46.64640 | 14.32665 | 1479 ft | 10 kts | 284° |
| 2026-05-09 13:44 | 46.64665 | 14.32563 | 1472 ft | 11 kts | 288° |
| 2026-05-09 13:44 | 46.64717 | 14.32478 | 1479 ft | 13 kts | 347° |
| 2026-05-09 13:44 | 46.64810 | 14.32462 | 1471 ft | 14 kts | 347° |
| 2026-05-09 13:45 | 46.64885 | 14.32488 | 1475 ft | 13 kts | 62° |
| 2026-05-09 13:45 | 46.64917 | 14.32542 | 1477 ft | 4 kts | 313° |
| 2026-05-09 13:45 | 46.64920 | 14.32497 | 1470 ft | 4 kts | 263° |
| 2026-05-09 13:45 | 46.64919 | 14.32490 | 1471 ft | 0 kts | 258° |